sensor_id;sensor_type;location;lat;lon;timestamp;P1;durP1;ratioP1;P2;durP2;ratioP2
71383;SDS011;67558;52.166;5.004;2023-05-10T00:02:17;30.45;;;18.70;;
71383;SDS011;67558;52.166;5.004;2023-05-10T00:04:43;30.58;;;18.48;;
71383;SDS011;67558;52.166;5.004;2023-05-10T00:07:08;25.80;;;17.05;;
71383;SDS011;67558;52.166;5.004;2023-05-10T00:09:35;25.65;;;17.55;;
71383;SDS011;67558;52.166;5.004;2023-05-10T00:12:00;32.53;;;23.25;;
71383;SDS011;67558;52.166;5.004;2023-05-10T00:14:26;29.08;;;19.52;;
71383;SDS011;67558;52.166;5.004;2023-05-10T00:16:51;35.13;;;20.50;;
71383;SDS011;67558;52.166;5.004;2023-05-10T00:19:16;29.83;;;19.00;;
71383;SDS011;67558;52.166;5.004;2023-05-10T00:21:42;31.75;;;21.08;;
71383;SDS011;67558;52.166;5.004;2023-05-10T00:24:07;32.08;;;19.30;;
71383;SDS011;67558;52.166;5.004;2023-05-10T00:26:32;34.50;;;21.02;;
71383;SDS011;67558;52.166;5.004;2023-05-10T00:28:58;29.70;;;20.83;;
71383;SDS011;67558;52.166;5.004;2023-05-10T00:31:23;31.25;;;20.42;;
71383;SDS011;67558;52.166;5.004;2023-05-10T00:33:49;31.33;;;18.77;;
71383;SDS011;67558;52.166;5.004;2023-05-10T00:36:14;34.80;;;21.25;;
71383;SDS011;67558;52.166;5.004;2023-05-10T00:38:39;33.05;;;20.17;;
71383;SDS011;67558;52.166;5.004;2023-05-10T00:41:05;35.88;;;21.13;;
71383;SDS011;67558;52.166;5.004;2023-05-10T00:43:31;36.25;;;22.17;;
71383;SDS011;67558;52.166;5.004;2023-05-10T00:45:58;29.85;;;21.05;;
71383;SDS011;67558;52.166;5.004;2023-05-10T00:48:23;30.40;;;22.02;;
71383;SDS011;67558;52.166;5.004;2023-05-10T00:50:48;30.25;;;20.33;;
71383;SDS011;67558;52.166;5.004;2023-05-10T00:53:14;31.90;;;19.55;;
71383;SDS011;67558;52.166;5.004;2023-05-10T00:55:40;35.35;;;21.02;;
71383;SDS011;67558;52.166;5.004;2023-05-10T00:58:06;30.85;;;20.00;;
71383;SDS011;67558;52.166;5.004;2023-05-10T01:00:32;32.88;;;21.98;;
71383;SDS011;67558;52.166;5.004;2023-05-10T01:02:58;39.40;;;21.85;;
71383;SDS011;67558;52.166;5.004;2023-05-10T01:05:24;43.22;;;21.33;;
71383;SDS011;67558;52.166;5.004;2023-05-10T01:07:49;42.50;;;21.20;;
71383;SDS011;67558;52.166;5.004;2023-05-10T01:10:15;40.53;;;23.13;;
71383;SDS011;67558;52.166;5.004;2023-05-10T01:12:42;41.40;;;21.63;;
71383;SDS011;67558;52.166;5.004;2023-05-10T01:15:10;34.83;;;21.58;;
71383;SDS011;67558;52.166;5.004;2023-05-10T01:17:37;37.70;;;19.35;;
71383;SDS011;67558;52.166;5.004;2023-05-10T01:20:05;40.55;;;20.02;;
71383;SDS011;67558;52.166;5.004;2023-05-10T01:36:31;37.97;;;21.15;;
71383;SDS011;67558;52.166;5.004;2023-05-10T01:44:40;42.08;;;22.83;;
71383;SDS011;67558;52.166;5.004;2023-05-10T01:47:26;43.88;;;22.30;;
71383;SDS011;67558;52.166;5.004;2023-05-10T01:50:01;45.72;;;22.75;;
71383;SDS011;67558;52.166;5.004;2023-05-10T01:52:33;42.65;;;22.98;;
71383;SDS011;67558;52.166;5.004;2023-05-10T01:55:02;47.50;;;21.98;;
71383;SDS011;67558;52.166;5.004;2023-05-10T01:57:32;44.65;;;26.35;;
71383;SDS011;67558;52.166;5.004;2023-05-10T02:00:01;42.90;;;23.17;;
71383;SDS011;67558;52.166;5.004;2023-05-10T02:02:28;43.47;;;22.80;;
71383;SDS011;67558;52.166;5.004;2023-05-10T02:04:58;47.20;;;22.08;;
71383;SDS011;67558;52.166;5.004;2023-05-10T02:07:24;43.35;;;19.80;;
71383;SDS011;67558;52.166;5.004;2023-05-10T02:09:53;38.63;;;21.30;;
71383;SDS011;67558;52.166;5.004;2023-05-10T02:12:20;44.78;;;20.73;;
71383;SDS011;67558;52.166;5.004;2023-05-10T02:14:47;43.25;;;20.90;;
71383;SDS011;67558;52.166;5.004;2023-05-10T02:17:13;40.00;;;20.92;;
71383;SDS011;67558;52.166;5.004;2023-05-10T02:19:40;42.08;;;19.35;;
71383;SDS011;67558;52.166;5.004;2023-05-10T02:22:07;50.80;;;22.00;;
71383;SDS011;67558;52.166;5.004;2023-05-10T02:24:33;44.70;;;21.17;;
71383;SDS011;67558;52.166;5.004;2023-05-10T02:27:00;46.67;;;22.00;;
71383;SDS011;67558;52.166;5.004;2023-05-10T02:29:28;43.10;;;21.30;;
71383;SDS011;67558;52.166;5.004;2023-05-10T02:31:56;50.78;;;23.52;;
71383;SDS011;67558;52.166;5.004;2023-05-10T02:34:23;49.28;;;25.02;;
71383;SDS011;67558;52.166;5.004;2023-05-10T02:36:51;47.53;;;23.20;;
71383;SDS011;67558;52.166;5.004;2023-05-10T02:39:18;46.80;;;23.52;;
71383;SDS011;67558;52.166;5.004;2023-05-10T02:41:45;46.85;;;24.30;;
71383;SDS011;67558;52.166;5.004;2023-05-10T02:44:13;51.70;;;25.88;;
71383;SDS011;67558;52.166;5.004;2023-05-10T02:46:40;42.28;;;22.75;;
71383;SDS011;67558;52.166;5.004;2023-05-10T02:49:06;45.10;;;22.00;;
71383;SDS011;67558;52.166;5.004;2023-05-10T02:51:32;46.53;;;23.42;;
71383;SDS011;67558;52.166;5.004;2023-05-10T02:54:02;42.35;;;21.98;;
71383;SDS011;67558;52.166;5.004;2023-05-10T02:56:34;47.33;;;23.70;;
71383;SDS011;67558;52.166;5.004;2023-05-10T02:59:05;54.22;;;23.60;;
71383;SDS011;67558;52.166;5.004;2023-05-10T03:01:31;48.33;;;22.95;;
71383;SDS011;67558;52.166;5.004;2023-05-10T03:03:56;48.90;;;23.33;;
71383;SDS011;67558;52.166;5.004;2023-05-10T03:06:22;54.22;;;25.02;;
71383;SDS011;67558;52.166;5.004;2023-05-10T03:08:47;51.22;;;26.55;;
71383;SDS011;67558;52.166;5.004;2023-05-10T03:11:32;48.30;;;22.75;;
71383;SDS011;67558;52.166;5.004;2023-05-10T03:17:00;46.35;;;23.10;;
71383;SDS011;67558;52.166;5.004;2023-05-10T03:19:37;46.95;;;23.08;;
71383;SDS011;67558;52.166;5.004;2023-05-10T03:22:12;50.90;;;22.75;;
71383;SDS011;67558;52.166;5.004;2023-05-10T03:24:41;45.92;;;22.95;;
71383;SDS011;67558;52.166;5.004;2023-05-10T03:27:08;45.88;;;21.63;;
71383;SDS011;67558;52.166;5.004;2023-05-10T03:29:34;58.22;;;26.58;;
71383;SDS011;67558;52.166;5.004;2023-05-10T03:32:01;50.15;;;23.83;;
71383;SDS011;67558;52.166;5.004;2023-05-10T03:34:26;44.95;;;23.23;;
71383;SDS011;67558;52.166;5.004;2023-05-10T03:36:54;44.92;;;24.15;;
71383;SDS011;67558;52.166;5.004;2023-05-10T03:39:20;43.53;;;20.33;;
71383;SDS011;67558;52.166;5.004;2023-05-10T03:41:46;53.97;;;25.55;;
71383;SDS011;67558;52.166;5.004;2023-05-10T03:44:11;48.33;;;22.77;;
71383;SDS011;67558;52.166;5.004;2023-05-10T03:46:37;38.88;;;21.13;;
71383;SDS011;67558;52.166;5.004;2023-05-10T03:49:02;46.72;;;21.75;;
71383;SDS011;67558;52.166;5.004;2023-05-10T03:51:27;46.38;;;20.95;;
71383;SDS011;67558;52.166;5.004;2023-05-10T03:53:53;55.85;;;24.23;;
71383;SDS011;67558;52.166;5.004;2023-05-10T03:56:21;53.75;;;25.05;;
71383;SDS011;67558;52.166;5.004;2023-05-10T03:58:47;53.00;;;24.15;;
71383;SDS011;67558;52.166;5.004;2023-05-10T04:01:12;56.70;;;23.27;;
71383;SDS011;67558;52.166;5.004;2023-05-10T04:03:38;43.05;;;24.30;;
71383;SDS011;67558;52.166;5.004;2023-05-10T04:06:03;55.65;;;23.48;;
71383;SDS011;67558;52.166;5.004;2023-05-10T04:08:29;46.58;;;31.85;;
71383;SDS011;67558;52.166;5.004;2023-05-10T04:11:04;45.50;;;24.45;;
71383;SDS011;67558;52.166;5.004;2023-05-10T04:13:33;47.25;;;23.75;;
71383;SDS011;67558;52.166;5.004;2023-05-10T04:15:58;48.50;;;23.83;;
71383;SDS011;67558;52.166;5.004;2023-05-10T04:18:24;43.58;;;23.77;;
71383;SDS011;67558;52.166;5.004;2023-05-10T04:20:49;44.80;;;22.95;;
71383;SDS011;67558;52.166;5.004;2023-05-10T04:23:15;47.22;;;23.52;;
71383;SDS011;67558;52.166;5.004;2023-05-10T04:25:41;52.58;;;25.05;;
71383;SDS011;67558;52.166;5.004;2023-05-10T04:28:07;52.17;;;24.77;;
71383;SDS011;67558;52.166;5.004;2023-05-10T04:30:32;47.67;;;25.92;;
71383;SDS011;67558;52.166;5.004;2023-05-10T04:32:58;50.80;;;26.33;;
71383;SDS011;67558;52.166;5.004;2023-05-10T04:35:23;54.92;;;23.23;;
71383;SDS011;67558;52.166;5.004;2023-05-10T04:37:48;54.75;;;25.10;;
71383;SDS011;67558;52.166;5.004;2023-05-10T04:40:14;47.22;;;25.08;;
71383;SDS011;67558;52.166;5.004;2023-05-10T04:42:40;52.80;;;25.27;;
71383;SDS011;67558;52.166;5.004;2023-05-10T04:45:06;48.88;;;22.20;;
71383;SDS011;67558;52.166;5.004;2023-05-10T04:47:32;57.60;;;24.10;;
71383;SDS011;67558;52.166;5.004;2023-05-10T04:49:57;52.65;;;24.38;;
71383;SDS011;67558;52.166;5.004;2023-05-10T04:52:23;46.78;;;23.40;;
71383;SDS011;67558;52.166;5.004;2023-05-10T04:54:48;48.85;;;22.80;;
71383;SDS011;67558;52.166;5.004;2023-05-10T04:57:14;39.88;;;21.50;;
71383;SDS011;67558;52.166;5.004;2023-05-10T04:59:39;38.95;;;21.52;;
71383;SDS011;67558;52.166;5.004;2023-05-10T05:02:05;40.35;;;23.75;;
71383;SDS011;67558;52.166;5.004;2023-05-10T05:04:30;39.95;;;21.50;;
71383;SDS011;67558;52.166;5.004;2023-05-10T05:06:56;34.95;;;19.17;;
71383;SDS011;67558;52.166;5.004;2023-05-10T05:09:21;38.67;;;22.20;;
71383;SDS011;67558;52.166;5.004;2023-05-10T05:11:47;38.38;;;23.00;;
71383;SDS011;67558;52.166;5.004;2023-05-10T05:14:12;46.85;;;26.42;;
71383;SDS011;67558;52.166;5.004;2023-05-10T05:16:37;38.72;;;21.90;;
71383;SDS011;67558;52.166;5.004;2023-05-10T05:19:03;46.35;;;22.13;;
71383;SDS011;67558;52.166;5.004;2023-05-10T05:21:28;43.58;;;22.45;;
71383;SDS011;67558;52.166;5.004;2023-05-10T05:23:54;42.10;;;23.33;;
71383;SDS011;67558;52.166;5.004;2023-05-10T05:26:19;46.13;;;22.70;;
71383;SDS011;67558;52.166;5.004;2023-05-10T05:28:45;43.35;;;29.38;;
71383;SDS011;67558;52.166;5.004;2023-05-10T05:31:10;37.55;;;22.27;;
71383;SDS011;67558;52.166;5.004;2023-05-10T05:33:36;32.72;;;24.63;;
71383;SDS011;67558;52.166;5.004;2023-05-10T05:36:02;27.42;;;17.52;;
71383;SDS011;67558;52.166;5.004;2023-05-10T05:38:28;26.58;;;16.70;;
71383;SDS011;67558;52.166;5.004;2023-05-10T05:40:54;27.88;;;17.40;;
71383;SDS011;67558;52.166;5.004;2023-05-10T05:43:20;24.60;;;17.65;;
71383;SDS011;67558;52.166;5.004;2023-05-10T05:45:45;23.50;;;16.77;;
71383;SDS011;67558;52.166;5.004;2023-05-10T05:48:10;17.88;;;14.48;;
71383;SDS011;67558;52.166;5.004;2023-05-10T05:50:36;16.50;;;14.10;;
71383;SDS011;67558;52.166;5.004;2023-05-10T05:53:01;17.45;;;13.70;;
71383;SDS011;67558;52.166;5.004;2023-05-10T05:55:27;20.95;;;13.68;;
71383;SDS011;67558;52.166;5.004;2023-05-10T05:57:52;20.92;;;14.35;;
71383;SDS011;67558;52.166;5.004;2023-05-10T06:00:18;17.33;;;12.85;;
71383;SDS011;67558;52.166;5.004;2023-05-10T06:02:43;18.73;;;13.27;;
71383;SDS011;67558;52.166;5.004;2023-05-10T06:05:09;20.58;;;13.73;;
71383;SDS011;67558;52.166;5.004;2023-05-10T06:07:34;20.50;;;14.90;;
71383;SDS011;67558;52.166;5.004;2023-05-10T06:10:00;19.33;;;14.35;;
71383;SDS011;67558;52.166;5.004;2023-05-10T06:12:25;23.40;;;21.30;;
71383;SDS011;67558;52.166;5.004;2023-05-10T06:14:50;17.33;;;13.82;;
71383;SDS011;67558;52.166;5.004;2023-05-10T06:17:16;22.70;;;20.52;;
71383;SDS011;67558;52.166;5.004;2023-05-10T06:19:42;18.42;;;12.80;;
71383;SDS011;67558;52.166;5.004;2023-05-10T06:22:07;18.88;;;13.90;;
71383;SDS011;67558;52.166;5.004;2023-05-10T06:24:33;17.00;;;13.32;;
71383;SDS011;67558;52.166;5.004;2023-05-10T06:26:59;16.23;;;13.27;;
71383;SDS011;67558;52.166;5.004;2023-05-10T06:29:26;18.38;;;14.40;;
71383;SDS011;67558;52.166;5.004;2023-05-10T06:31:52;15.90;;;12.43;;
71383;SDS011;67558;52.166;5.004;2023-05-10T06:34:17;16.00;;;13.13;;
71383;SDS011;67558;52.166;5.004;2023-05-10T06:36:43;17.27;;;13.90;;
71383;SDS011;67558;52.166;5.004;2023-05-10T06:39:08;19.38;;;13.48;;
71383;SDS011;67558;52.166;5.004;2023-05-10T06:41:33;15.30;;;13.43;;
71383;SDS011;67558;52.166;5.004;2023-05-10T06:43:59;15.73;;;13.57;;
71383;SDS011;67558;52.166;5.004;2023-05-10T06:46:25;16.92;;;14.00;;
71383;SDS011;67558;52.166;5.004;2023-05-10T06:48:50;14.05;;;12.43;;
71383;SDS011;67558;52.166;5.004;2023-05-10T06:51:16;13.80;;;12.10;;
71383;SDS011;67558;52.166;5.004;2023-05-10T06:53:41;14.27;;;12.52;;
71383;SDS011;67558;52.166;5.004;2023-05-10T06:56:06;15.63;;;14.05;;
71383;SDS011;67558;52.166;5.004;2023-05-10T06:58:32;16.05;;;13.27;;
71383;SDS011;67558;52.166;5.004;2023-05-10T07:01:04;16.88;;;13.68;;
71383;SDS011;67558;52.166;5.004;2023-05-10T07:03:30;13.82;;;11.43;;
71383;SDS011;67558;52.166;5.004;2023-05-10T07:05:59;14.75;;;13.48;;
71383;SDS011;67558;52.166;5.004;2023-05-10T07:08:26;15.32;;;13.80;;
71383;SDS011;67558;52.166;5.004;2023-05-10T07:10:51;14.95;;;13.27;;
71383;SDS011;67558;52.166;5.004;2023-05-10T07:13:17;22.35;;;20.63;;
71383;SDS011;67558;52.166;5.004;2023-05-10T07:15:42;15.27;;;13.32;;
71383;SDS011;67558;52.166;5.004;2023-05-10T07:18:08;17.75;;;16.00;;
71383;SDS011;67558;52.166;5.004;2023-05-10T07:20:33;15.82;;;14.43;;
71383;SDS011;67558;52.166;5.004;2023-05-10T07:22:59;16.85;;;14.70;;
71383;SDS011;67558;52.166;5.004;2023-05-10T07:25:24;14.57;;;13.07;;
71383;SDS011;67558;52.166;5.004;2023-05-10T07:27:49;16.08;;;13.85;;
71383;SDS011;67558;52.166;5.004;2023-05-10T07:30:15;17.05;;;14.60;;
71383;SDS011;67558;52.166;5.004;2023-05-10T07:32:41;18.58;;;15.57;;
71383;SDS011;67558;52.166;5.004;2023-05-10T07:35:07;15.32;;;12.82;;
71383;SDS011;67558;52.166;5.004;2023-05-10T07:37:33;14.55;;;12.55;;
71383;SDS011;67558;52.166;5.004;2023-05-10T07:39:58;16.60;;;13.25;;
71383;SDS011;67558;52.166;5.004;2023-05-10T07:42:24;14.38;;;12.95;;
71383;SDS011;67558;52.166;5.004;2023-05-10T07:44:49;24.02;;;22.08;;
71383;SDS011;67558;52.166;5.004;2023-05-10T07:47:14;14.60;;;13.10;;
71383;SDS011;67558;52.166;5.004;2023-05-10T07:49:40;13.70;;;12.30;;
71383;SDS011;67558;52.166;5.004;2023-05-10T07:52:05;12.82;;;11.63;;
71383;SDS011;67558;52.166;5.004;2023-05-10T07:54:31;14.00;;;12.77;;
71383;SDS011;67558;52.166;5.004;2023-05-10T07:56:56;13.10;;;12.00;;
71383;SDS011;67558;52.166;5.004;2023-05-10T07:59:21;14.73;;;12.10;;
71383;SDS011;67558;52.166;5.004;2023-05-10T08:01:47;14.18;;;12.88;;
71383;SDS011;67558;52.166;5.004;2023-05-10T08:04:12;14.93;;;13.43;;
71383;SDS011;67558;52.166;5.004;2023-05-10T08:06:38;15.20;;;13.55;;
71383;SDS011;67558;52.166;5.004;2023-05-10T08:09:05;14.30;;;12.90;;
71383;SDS011;67558;52.166;5.004;2023-05-10T08:11:30;13.55;;;12.15;;
71383;SDS011;67558;52.166;5.004;2023-05-10T08:13:55;13.65;;;12.23;;
71383;SDS011;67558;52.166;5.004;2023-05-10T08:16:21;15.55;;;14.25;;
71383;SDS011;67558;52.166;5.004;2023-05-10T08:18:46;12.85;;;11.68;;
71383;SDS011;67558;52.166;5.004;2023-05-10T08:21:12;14.45;;;12.98;;
71383;SDS011;67558;52.166;5.004;2023-05-10T08:23:38;15.00;;;13.57;;
71383;SDS011;67558;52.166;5.004;2023-05-10T08:26:04;14.32;;;12.95;;
71383;SDS011;67558;52.166;5.004;2023-05-10T08:28:30;13.38;;;12.20;;
71383;SDS011;67558;52.166;5.004;2023-05-10T08:30:55;14.50;;;12.00;;
71383;SDS011;67558;52.166;5.004;2023-05-10T08:33:21;14.25;;;12.85;;
71383;SDS011;67558;52.166;5.004;2023-05-10T08:35:46;12.13;;;11.00;;
71383;SDS011;67558;52.166;5.004;2023-05-10T08:38:12;13.13;;;11.93;;
71383;SDS011;67558;52.166;5.004;2023-05-10T08:40:38;14.65;;;13.20;;
71383;SDS011;67558;52.166;5.004;2023-05-10T08:43:07;12.95;;;11.85;;
71383;SDS011;67558;52.166;5.004;2023-05-10T08:45:38;15.23;;;13.75;;
71383;SDS011;67558;52.166;5.004;2023-05-10T08:48:05;12.75;;;11.70;;
71383;SDS011;67558;52.166;5.004;2023-05-10T08:50:33;12.63;;;11.75;;
71383;SDS011;67558;52.166;5.004;2023-05-10T08:53:04;14.13;;;12.73;;
71383;SDS011;67558;52.166;5.004;2023-05-10T08:55:32;13.80;;;12.60;;
71383;SDS011;67558;52.166;5.004;2023-05-10T08:57:58;13.65;;;12.60;;
71383;SDS011;67558;52.166;5.004;2023-05-10T09:00:24;14.40;;;13.02;;
71383;SDS011;67558;52.166;5.004;2023-05-10T09:02:51;12.55;;;11.57;;
71383;SDS011;67558;52.166;5.004;2023-05-10T09:05:16;12.48;;;11.40;;
71383;SDS011;67558;52.166;5.004;2023-05-10T09:07:42;21.88;;;20.63;;
71383;SDS011;67558;52.166;5.004;2023-05-10T09:10:08;13.23;;;12.23;;
71383;SDS011;67558;52.166;5.004;2023-05-10T09:12:35;15.55;;;14.38;;
71383;SDS011;67558;52.166;5.004;2023-05-10T09:15:01;11.90;;;10.65;;
71383;SDS011;67558;52.166;5.004;2023-05-10T09:17:28;12.57;;;11.57;;
71383;SDS011;67558;52.166;5.004;2023-05-10T09:20:01;13.05;;;11.95;;
71383;SDS011;67558;52.166;5.004;2023-05-10T09:22:27;12.00;;;10.95;;
71383;SDS011;67558;52.166;5.004;2023-05-10T09:27:35;13.85;;;12.75;;
71383;SDS011;67558;52.166;5.004;2023-05-10T09:30:02;12.77;;;11.88;;
71383;SDS011;67558;52.166;5.004;2023-05-10T09:32:38;12.18;;;11.35;;
71383;SDS011;67558;52.166;5.004;2023-05-10T09:35:14;12.35;;;11.65;;
71383;SDS011;67558;52.166;5.004;2023-05-10T09:37:43;11.32;;;10.63;;
71383;SDS011;67558;52.166;5.004;2023-05-10T09:40:13;11.10;;;10.43;;
71383;SDS011;67558;52.166;5.004;2023-05-10T09:42:41;12.43;;;11.63;;
71383;SDS011;67558;52.166;5.004;2023-05-10T09:45:08;13.68;;;12.90;;
71383;SDS011;67558;52.166;5.004;2023-05-10T09:47:34;12.00;;;11.25;;
71383;SDS011;67558;52.166;5.004;2023-05-10T09:50:00;14.02;;;13.32;;
71383;SDS011;67558;52.166;5.004;2023-05-10T09:52:48;12.18;;;11.20;;
71383;SDS011;67558;52.166;5.004;2023-05-10T09:55:14;11.68;;;10.77;;
71383;SDS011;67558;52.166;5.004;2023-05-10T09:57:40;11.80;;;11.02;;
71383;SDS011;67558;52.166;5.004;2023-05-10T10:00:06;12.57;;;11.75;;
71383;SDS011;67558;52.166;5.004;2023-05-10T10:02:32;13.15;;;12.13;;
71383;SDS011;67558;52.166;5.004;2023-05-10T10:04:58;12.35;;;11.45;;
71383;SDS011;67558;52.166;5.004;2023-05-10T10:07:26;11.73;;;10.93;;
71383;SDS011;67558;52.166;5.004;2023-05-10T10:09:52;14.52;;;13.25;;
71383;SDS011;67558;52.166;5.004;2023-05-10T10:12:18;13.15;;;12.32;;
71383;SDS011;67558;52.166;5.004;2023-05-10T10:14:45;12.70;;;11.82;;
71383;SDS011;67558;52.166;5.004;2023-05-10T10:17:12;12.55;;;11.65;;
71383;SDS011;67558;52.166;5.004;2023-05-10T10:19:38;13.98;;;12.77;;
71383;SDS011;67558;52.166;5.004;2023-05-10T10:22:04;13.48;;;12.55;;
71383;SDS011;67558;52.166;5.004;2023-05-10T10:24:30;13.70;;;12.80;;
71383;SDS011;67558;52.166;5.004;2023-05-10T10:26:56;13.73;;;12.32;;
71383;SDS011;67558;52.166;5.004;2023-05-10T10:32:25;12.30;;;11.25;;
71383;SDS011;67558;52.166;5.004;2023-05-10T10:35:13;15.18;;;14.27;;
71383;SDS011;67558;52.166;5.004;2023-05-10T10:37:47;15.10;;;13.82;;
71383;SDS011;67558;52.166;5.004;2023-05-10T10:40:32;13.50;;;12.73;;
71383;SDS011;67558;52.166;5.004;2023-05-10T10:42:59;15.88;;;14.90;;
71383;SDS011;67558;52.166;5.004;2023-05-10T10:46:09;15.75;;;14.75;;
71383;SDS011;67558;52.166;5.004;2023-05-10T10:48:39;14.23;;;13.32;;
71383;SDS011;67558;52.166;5.004;2023-05-10T10:51:23;14.38;;;13.52;;
71383;SDS011;67558;52.166;5.004;2023-05-10T10:53:48;12.82;;;12.13;;
71383;SDS011;67558;52.166;5.004;2023-05-10T10:56:14;13.07;;;12.45;;
71383;SDS011;67558;52.166;5.004;2023-05-10T10:58:40;16.48;;;15.60;;
71383;SDS011;67558;52.166;5.004;2023-05-10T11:01:13;13.93;;;12.95;;
71383;SDS011;67558;52.166;5.004;2023-05-10T11:03:39;13.57;;;12.82;;
71383;SDS011;67558;52.166;5.004;2023-05-10T11:06:05;15.25;;;14.00;;
71383;SDS011;67558;52.166;5.004;2023-05-10T11:08:32;12.30;;;11.55;;
71383;SDS011;67558;52.166;5.004;2023-05-10T11:13:26;14.23;;;13.32;;
71383;SDS011;67558;52.166;5.004;2023-05-10T11:16:17;13.30;;;12.48;;
71383;SDS011;67558;52.166;5.004;2023-05-10T11:18:57;12.65;;;11.93;;
71383;SDS011;67558;52.166;5.004;2023-05-10T11:21:31;14.73;;;13.68;;
71383;SDS011;67558;52.166;5.004;2023-05-10T11:23:58;11.40;;;10.68;;
71383;SDS011;67558;52.166;5.004;2023-05-10T11:26:25;13.10;;;12.50;;
71383;SDS011;67558;52.166;5.004;2023-05-10T11:28:55;13.13;;;12.43;;
71383;SDS011;67558;52.166;5.004;2023-05-10T11:31:21;12.65;;;11.95;;
71383;SDS011;67558;52.166;5.004;2023-05-10T11:36:16;12.00;;;11.30;;
71383;SDS011;67558;52.166;5.004;2023-05-10T11:38:43;12.20;;;11.32;;
71383;SDS011;67558;52.166;5.004;2023-05-10T11:41:10;11.88;;;11.27;;
71383;SDS011;67558;52.166;5.004;2023-05-10T11:43:36;13.80;;;13.00;;
71383;SDS011;67558;52.166;5.004;2023-05-10T11:46:07;13.00;;;12.27;;
71383;SDS011;67558;52.166;5.004;2023-05-10T11:48:35;22.00;;;21.20;;
71383;SDS011;67558;52.166;5.004;2023-05-10T11:51:01;14.60;;;13.68;;
71383;SDS011;67558;52.166;5.004;2023-05-10T11:53:27;14.23;;;13.43;;
71383;SDS011;67558;52.166;5.004;2023-05-10T11:55:54;12.88;;;12.18;;
71383;SDS011;67558;52.166;5.004;2023-05-10T11:58:19;12.32;;;11.70;;
71383;SDS011;67558;52.166;5.004;2023-05-10T12:00:46;13.98;;;13.18;;
71383;SDS011;67558;52.166;5.004;2023-05-10T12:03:13;12.27;;;11.52;;
71383;SDS011;67558;52.166;5.004;2023-05-10T12:05:38;13.20;;;12.40;;
71383;SDS011;67558;52.166;5.004;2023-05-10T12:08:13;13.48;;;12.57;;
71383;SDS011;67558;52.166;5.004;2023-05-10T12:10:39;13.63;;;12.80;;
71383;SDS011;67558;52.166;5.004;2023-05-10T12:13:05;14.70;;;13.80;;
71383;SDS011;67558;52.166;5.004;2023-05-10T12:15:32;15.07;;;13.98;;
71383;SDS011;67558;52.166;5.004;2023-05-10T12:17:57;15.32;;;14.18;;
71383;SDS011;67558;52.166;5.004;2023-05-10T12:20:26;16.63;;;15.10;;
71383;SDS011;67558;52.166;5.004;2023-05-10T12:22:53;16.95;;;15.45;;
71383;SDS011;67558;52.166;5.004;2023-05-10T12:25:21;24.77;;;23.17;;
71383;SDS011;67558;52.166;5.004;2023-05-10T12:27:54;17.80;;;15.85;;
71383;SDS011;67558;52.166;5.004;2023-05-10T12:30:22;20.10;;;18.40;;
71383;SDS011;67558;52.166;5.004;2023-05-10T12:32:52;17.60;;;16.10;;
71383;SDS011;67558;52.166;5.004;2023-05-10T12:35:18;26.63;;;24.38;;
71383;SDS011;67558;52.166;5.004;2023-05-10T12:37:48;18.70;;;16.27;;
71383;SDS011;67558;52.166;5.004;2023-05-10T12:40:14;17.90;;;15.70;;
71383;SDS011;67558;52.166;5.004;2023-05-10T12:42:39;17.92;;;16.05;;
71383;SDS011;67558;52.166;5.004;2023-05-10T12:45:05;18.48;;;16.17;;
71383;SDS011;67558;52.166;5.004;2023-05-10T12:47:32;25.98;;;24.08;;
71383;SDS011;67558;52.166;5.004;2023-05-10T12:49:58;20.30;;;16.85;;
71383;SDS011;67558;52.166;5.004;2023-05-10T12:52:25;18.75;;;16.75;;
71383;SDS011;67558;52.166;5.004;2023-05-10T12:54:51;19.95;;;17.77;;
71383;SDS011;67558;52.166;5.004;2023-05-10T12:57:16;19.05;;;16.85;;
71383;SDS011;67558;52.166;5.004;2023-05-10T12:59:42;17.20;;;15.60;;
71383;SDS011;67558;52.166;5.004;2023-05-10T13:02:08;18.08;;;16.25;;
71383;SDS011;67558;52.166;5.004;2023-05-10T13:04:33;18.27;;;15.73;;
71383;SDS011;67558;52.166;5.004;2023-05-10T13:06:59;17.80;;;15.90;;
71383;SDS011;67558;52.166;5.004;2023-05-10T13:09:24;17.35;;;15.00;;
71383;SDS011;67558;52.166;5.004;2023-05-10T13:11:51;15.50;;;13.63;;
71383;SDS011;67558;52.166;5.004;2023-05-10T13:14:18;14.60;;;13.27;;
71383;SDS011;67558;52.166;5.004;2023-05-10T13:16:45;15.63;;;14.07;;
71383;SDS011;67558;52.166;5.004;2023-05-10T13:19:10;15.07;;;13.23;;
71383;SDS011;67558;52.166;5.004;2023-05-10T13:21:36;25.13;;;23.35;;
71383;SDS011;67558;52.166;5.004;2023-05-10T13:24:01;15.23;;;13.95;;
71383;SDS011;67558;52.166;5.004;2023-05-10T13:26:27;15.20;;;13.80;;
71383;SDS011;67558;52.166;5.004;2023-05-10T13:28:53;15.50;;;14.10;;
71383;SDS011;67558;52.166;5.004;2023-05-10T13:31:20;13.93;;;12.85;;
71383;SDS011;67558;52.166;5.004;2023-05-10T13:33:46;15.68;;;14.27;;
71383;SDS011;67558;52.166;5.004;2023-05-10T13:36:11;14.70;;;13.30;;
71383;SDS011;67558;52.166;5.004;2023-05-10T13:38:36;16.75;;;15.38;;
71383;SDS011;67558;52.166;5.004;2023-05-10T13:41:02;15.45;;;13.63;;
71383;SDS011;67558;52.166;5.004;2023-05-10T13:43:29;14.60;;;13.10;;
71383;SDS011;67558;52.166;5.004;2023-05-10T13:45:54;16.92;;;15.52;;
71383;SDS011;67558;52.166;5.004;2023-05-10T13:48:20;13.95;;;12.65;;
71383;SDS011;67558;52.166;5.004;2023-05-10T13:50:46;14.07;;;12.82;;
71383;SDS011;67558;52.166;5.004;2023-05-10T13:53:11;15.30;;;14.00;;
71383;SDS011;67558;52.166;5.004;2023-05-10T13:55:37;15.30;;;13.90;;
71383;SDS011;67558;52.166;5.004;2023-05-10T13:58:02;14.50;;;13.10;;
71383;SDS011;67558;52.166;5.004;2023-05-10T14:00:28;17.60;;;16.45;;
71383;SDS011;67558;52.166;5.004;2023-05-10T14:02:53;16.38;;;15.27;;
71383;SDS011;67558;52.166;5.004;2023-05-10T14:05:19;14.43;;;13.13;;
71383;SDS011;67558;52.166;5.004;2023-05-10T14:07:45;13.82;;;12.57;;
71383;SDS011;67558;52.166;5.004;2023-05-10T14:10:10;16.60;;;15.25;;
71383;SDS011;67558;52.166;5.004;2023-05-10T14:12:35;14.38;;;13.30;;
71383;SDS011;67558;52.166;5.004;2023-05-10T14:15:01;15.68;;;14.32;;
71383;SDS011;67558;52.166;5.004;2023-05-10T14:17:27;14.90;;;13.65;;
71383;SDS011;67558;52.166;5.004;2023-05-10T14:19:52;13.43;;;12.35;;
71383;SDS011;67558;52.166;5.004;2023-05-10T14:22:18;15.45;;;14.27;;
71383;SDS011;67558;52.166;5.004;2023-05-10T14:24:43;14.77;;;13.68;;
71383;SDS011;67558;52.166;5.004;2023-05-10T14:27:11;16.92;;;15.63;;
71383;SDS011;67558;52.166;5.004;2023-05-10T14:29:37;15.07;;;13.70;;
71383;SDS011;67558;52.166;5.004;2023-05-10T14:32:02;15.00;;;13.82;;
71383;SDS011;67558;52.166;5.004;2023-05-10T14:34:28;15.25;;;14.15;;
71383;SDS011;67558;52.166;5.004;2023-05-10T14:36:53;17.15;;;15.75;;
71383;SDS011;67558;52.166;5.004;2023-05-10T14:39:19;14.38;;;13.27;;
71383;SDS011;67558;52.166;5.004;2023-05-10T14:41:44;15.68;;;14.48;;
71383;SDS011;67558;52.166;5.004;2023-05-10T14:44:10;14.35;;;13.18;;
71383;SDS011;67558;52.166;5.004;2023-05-10T14:46:36;16.25;;;15.13;;
71383;SDS011;67558;52.166;5.004;2023-05-10T14:49:01;12.65;;;11.70;;
71383;SDS011;67558;52.166;5.004;2023-05-10T14:51:27;13.52;;;12.60;;
71383;SDS011;67558;52.166;5.004;2023-05-10T14:53:52;13.02;;;12.23;;